Time;durP1;ratioP1;P1;durP2;ratioP2;P2;SDS_P1;SDS_P2;PMS_P1;PMS_P2;Temp;Humidity;BMP_temperature;BMP_pressure;BME280_temperature;BME280_humidity;BME280_pressure;Samples;Min_cycle;Max_cycle;Signal;HPM_P1;HPM_P2
2024/03/08 11:09:32;;;;;;;21.23;14.70;;;;;;;12.62;44.48;98247.28;6891137;28;20232;-84
2024/03/08 11:13:16;;;;;;;;;;;;;;;;;;;;;
2024/03/08 11:17:25;;;;;;;21.93;15.37;;;;;;;12.08;43.02;98111.50;6860454;28;20271;-84
2024/03/08 11:34:29;;;;;;;;;;;;;;;;;;;;;
2024/03/08 11:51:11;;;;;;;24.40;16.60;;;;;;;11.34;45.54;98183.94;6537953;30;20729;-83
2024/03/08 11:54:40;;;;;;;23.63;15.87;;;;;;;12.78;42.54;98191.69;6578082;30;20228;-84
2024/03/08 11:58:10;;;;;;;24.33;16.03;;;;;;;12.63;43.95;98191.31;6621720;29;20231;-84
2024/03/08 12:05:28;;;;;;;22.70;15.23;;;;;;;12.83;42.12;98102.53;6680486;29;20552;-84
2024/03/08 12:08:57;;;;;;;20.50;14.20;;;;;;;13.48;41.69;98137.31;6659408;29;20237;-83
2024/03/08 12:12:59;;;;;;;22.00;15.20;;;;;;;13.69;41.34;98136.63;6660508;29;20646;-82
2024/03/08 12:16:21;;;;;;;23.87;16.60;;;;;;;14.21;39.92;98132.78;6800048;28;20229;-82
2024/03/08 12:19:49;;;;;;;22.47;14.97;;;;;;;14.24;40.71;98120.63;6888840;28;20575;-83
2024/03/08 12:23:39;;;;;;;21.70;15.10;;;;;;;14.28;39.29;98071.06;6890822;28;20640;-83
2024/03/08 12:31:55;;;;;;;22.43;15.93;;;;;;;12.63;42.33;97964.16;6739637;29;20263;-82
2024/03/08 12:35:53;;;;;;;22.47;15.90;;;;;;;13.79;42.36;98117.03;6650823;29;20273;-82
2024/03/08 12:39:22;;;;;;;22.57;16.93;;;;;;;14.03;40.49;98092.31;6737290;29;20357;-81
2024/03/08 12:42:44;;;;;;;23.20;16.93;;;;;;;13.36;42.28;98103.19;6758303;29;20220;-83
2024/03/08 12:46:05;;;;;;;22.27;15.43;;;;;;;13.39;42.51;98100.81;6758305;29;20211;-80
2024/03/08 12:49:27;;;;;;;21.50;15.50;;;;;;;14.28;40.43;98081.91;6758197;29;20244;-82
2024/03/08 12:52:50;;;;;;;20.57;15.97;;;;;;;14.62;39.12;98077.34;6759037;29;20369;-82
2024/03/08 12:56:12;;;;;;;24.20;15.93;;;;;;;14.45;39.51;98071.91;6782558;28;20320;-83
2024/03/08 12:59:33;;;;;;;20.53;16.27;;;;;;;14.83;39.86;98060.25;6893120;28;20261;-81
2024/03/08 13:02:55;;;;;;;23.30;15.13;;;;;;;15.24;39.11;98067.88;6894266;28;20209;-82
2024/03/08 13:06:17;;;;;;;18.00;13.37;;;;;;;14.84;39.17;98057.31;6895241;28;20218;-82
2024/03/08 13:09:40;;;;;;;20.43;14.77;;;;;;;14.69;39.31;98048.94;6894084;28;20708;-83
2024/03/08 13:13:03;;;;;;;21.50;14.77;;;;;;;15.05;38.81;98047.53;6886652;28;20252;-82
2024/03/08 13:16:24;;;;;;;22.27;14.40;;;;;;;14.89;38.93;98042.97;6890795;28;20724;-82
2024/03/08 13:19:46;;;;;;;21.30;14.80;;;;;;;14.66;38.76;98027.75;6873569;28;20233;-82
2024/03/08 13:23:08;;;;;;;23.33;15.23;;;;;;;15.38;38.80;98031.97;6867591;28;20784;-83
2024/03/08 13:26:32;;;;;;;21.13;15.13;;;;;;;16.00;37.41;98025.03;6872053;28;20756;-83
2024/03/08 13:29:54;;;;;;;19.23;14.80;;;;;;;15.83;37.40;98020.75;6892861;28;20234;-82
2024/03/08 13:33:15;;;;;;;20.50;14.87;;;;;;;15.66;38.42;98014.59;6893346;28;20220;-82
2024/03/08 13:36:42;;;;;;;20.97;15.23;;;;;;;15.18;37.63;98014.59;6892746;28;20287;-82
2024/03/08 13:40:05;;;;;;;19.90;14.50;;;;;;;15.12;38.42;98012.88;6890882;28;20604;-82
2024/03/08 13:43:29;;;;;;;20.63;14.63;;;;;;;15.92;38.19;97994.75;6891691;28;20210;-82
2024/03/08 13:46:51;;;;;;;18.83;14.73;;;;;;;15.91;37.38;97988.50;6894537;28;20727;-82
2024/03/08 13:50:21;;;;;;;21.07;15.17;;;;;;;15.41;38.11;97960.84;6892444;28;20435;-84
2024/03/08 13:53:44;;;;;;;20.63;15.37;;;;;;;14.06;40.30;97975.28;6875505;28;20229;-83
2024/03/08 13:57:07;;;;;;;20.27;14.37;;;;;;;14.28;39.90;97975.38;6872556;28;20575;-84
2024/03/08 14:00:33;;;;;;;18.43;14.43;;;;;;;14.12;40.43;97962.63;6872585;28;21012;-84
2024/03/08 14:03:55;;;;;;;19.13;14.60;;;;;;;14.79;39.69;97953.28;6869883;28;20755;-83
2024/03/08 14:07:17;;;;;;;21.90;15.10;;;;;;;14.39;40.48;97928.34;6868858;28;20402;-82
2024/03/08 14:10:38;;;;;;;19.23;14.97;;;;;;;13.54;41.14;97873.66;6869508;28;20219;-82
2024/03/08 14:14:00;;;;;;;18.60;14.73;;;;;;;14.21;40.95;97942.19;6868855;28;20749;-83
2024/03/08 14:17:23;;;;;;;21.57;14.13;;;;;;;13.79;42.71;97939.06;6871233;28;20374;-82
2024/03/08 14:20:45;;;;;;;17.50;14.67;;;;;;;14.58;40.07;97919.66;6880155;28;20734;-83
2024/03/08 14:24:07;;;;;;;20.20;14.60;;;;;;;14.20;40.42;97840.22;6870792;28;20317;-83
2024/03/08 14:27:28;;;;;;;21.80;15.67;;;;;;;14.31;41.24;97917.91;6864792;28;20303;-83
2024/03/08 14:30:50;;;;;;;21.90;15.50;;;;;;;14.12;42.32;97919.25;6864530;28;20245;-82
2024/03/08 14:34:14;;;;;;;20.30;15.60;;;;;;;14.79;40.05;97909.88;6860722;28;20221;-83
2024/03/08 14:37:35;;;;;;;20.63;14.03;;;;;;;14.89;39.80;97910.81;6890537;28;20236;-83
2024/03/08 14:40:57;;;;;;;20.60;13.50;;;;;;;15.53;40.06;97892.75;6885275;28;20737;-83
2024/03/08 14:44:19;;;;;;;21.27;14.93;;;;;;;15.46;39.43;97903.84;6891761;28;20216;-83
2024/03/08 14:47:40;;;;;;;19.03;14.63;;;;;;;15.35;39.17;97849.69;6884018;28;20221;-83
2024/03/08 14:51:04;;;;;;;21.30;15.27;;;;;;;15.37;39.18;97870.09;6862637;28;20217;-83
2024/03/08 14:54:25;;;;;;;18.97;14.13;;;;;;;15.56;39.26;97894.94;6864203;28;20214;-84
2024/03/08 14:57:47;;;;;;;19.13;14.37;;;;;;;16.07;37.34;97881.50;6863866;28;20236;-83
2024/03/08 15:01:08;;;;;;;21.50;13.77;;;;;;;15.39;39.21;97884.22;6862773;28;20703;-83
2024/03/08 15:04:30;;;;;;;19.53;14.13;;;;;;;15.28;39.16;97884.34;6863761;28;20236;-82
2024/03/08 15:07:53;;;;;;;20.33;15.40;;;;;;;14.97;39.45;97876.97;6863546;28;20324;-84
2024/03/08 15:11:20;;;;;;;18.33;13.77;;;;;;;15.45;39.24;97877.75;6861763;28;20668;-84
2024/03/08 15:14:43;;;;;;;19.33;15.80;;;;;;;14.91;39.36;97862.53;6863027;28;20204;-85
2024/03/08 15:18:07;;;;;;;19.13;15.20;;;;;;;15.41;39.28;97822.31;6866176;28;20236;-84
2024/03/08 15:21:28;;;;;;;17.87;14.00;;;;;;;15.50;38.07;97847.91;6861924;28;20336;-84
2024/03/08 15:24:52;;;;;;;17.83;14.43;;;;;;;15.59;37.61;97846.38;6864074;28;20768;-84
2024/03/08 15:28:15;;;;;;;16.77;13.17;;;;;;;15.33;38.77;97838.28;6883572;28;20232;-84
2024/03/08 15:31:38;;;;;;;19.07;13.70;;;;;;;15.31;39.20;97841.22;6889608;28;20330;-84
2024/03/08 15:34:59;;;;;;;17.87;12.97;;;;;;;14.94;39.28;97839.47;6864333;28;20671;-84
2024/03/08 15:38:21;;;;;;;16.50;13.97;;;;;;;15.04;38.60;97829.53;6862099;28;20384;-84
2024/03/08 15:41:45;;;;;;;19.03;13.53;;;;;;;14.85;39.02;97770.44;6868922;28;20764;-84
2024/03/08 15:45:08;;;;;;;16.57;13.40;;;;;;;15.32;38.43;97823.00;6869738;28;20216;-84
2024/03/08 15:48:31;;;;;;;16.50;12.90;;;;;;;14.95;39.45;97820.25;6862724;28;20650;-84
2024/03/08 15:51:52;;;;;;;16.97;13.13;;;;;;;15.54;38.27;97816.44;6863710;28;20202;-85
2024/03/08 15:55:19;;;;;;;18.20;12.93;;;;;;;15.68;37.37;97774.13;6862149;28;20300;-84
2024/03/08 15:58:42;;;;;;;17.80;12.90;;;;;;;15.38;38.39;97794.84;6869965;28;20706;-84
2024/03/08 16:02:04;;;;;;;17.90;12.80;;;;;;;15.13;38.10;97792.72;6914180;28;20293;-84
2024/03/08 16:05:26;;;;;;;15.90;11.73;;;;;;;15.37;38.43;97788.59;6916883;28;20702;-84
2024/03/08 16:08:48;;;;;;;14.50;11.40;;;;;;;15.73;37.78;97800.53;6915092;28;20260;-84
2024/03/08 16:12:09;;;;;;;14.30;11.73;;;;;;;15.30;38.22;97784.44;6919345;28;20247;-84
2024/03/08 16:15:36;;;;;;;16.27;12.50;;;;;;;14.84;38.66;97804.91;6904068;28;20686;-84
2024/03/08 16:19:07;;;;;;;13.77;11.63;;;;;;;15.09;38.84;97777.19;6876227;28;20697;-84
2024/03/08 16:22:30;;;;;;;14.83;11.97;;;;;;;15.48;38.26;97786.78;6883376;28;20200;-88
2024/03/08 16:25:55;;;;;;;14.90;11.87;;;;;;;15.59;38.22;97774.91;6890493;28;20205;-85
2024/03/08 16:29:20;;;;;;;16.10;12.17;;;;;;;15.38;38.73;97768.50;6872983;28;20231;-82
2024/03/08 16:32:44;;;;;;;14.53;11.47;;;;;;;15.04;38.72;97774.44;6880193;28;20213;-84
2024/03/08 16:36:07;;;;;;;14.93;11.23;;;;;;;15.35;38.21;97770.94;6863510;28;20209;-84
2024/03/08 16:44:24;;;;;;;13.93;11.23;;;;;;;14.89;39.02;97782.44;6871847;28;20214;-86
2024/03/08 16:47:48;;;;;;;16.37;11.87;;;;;;;14.68;39.58;97773.28;6892483;28;20248;-84
2024/03/08 16:51:09;;;;;;;15.23;11.97;;;;;;;14.27;39.83;97770.38;6892188;28;20232;-81
2024/03/08 16:54:32;;;;;;;16.50;11.67;;;;;;;14.38;39.34;97764.81;6866149;28;20268;-83
2024/03/08 16:57:54;;;;;;;16.40;12.10;;;;;;;14.20;39.58;97727.19;6863941;28;20249;-83
2024/03/08 17:01:16;;;;;;;15.30;11.40;;;;;;;14.77;38.88;97760.06;6868122;28;20293;-82
2024/03/08 17:04:39;;;;;;;13.40;10.77;;;;;;;14.26;40.23;97766.84;6863876;28;20211;-82
2024/03/08 17:08:04;;;;;;;18.47;12.07;;;;;;;14.53;39.13;97753.31;6861961;28;20329;-82
2024/03/08 17:11:26;;;;;;;13.50;10.57;;;;;;;14.57;39.11;97757.97;6871838;28;20196;-82
2024/03/08 17:14:47;;;;;;;14.53;11.20;;;;;;;14.40;39.32;97756.44;6892760;28;20217;-82
2024/03/08 17:18:09;;;;;;;16.30;11.10;;;;;;;13.96;40.04;97757.47;6894277;28;20447;-82
2024/03/08 17:21:32;;;;;;;13.90;11.03;;;;;;;13.96;39.61;97724.97;6893077;28;20276;-82
2024/03/08 17:24:54;;;;;;;14.13;10.97;;;;;;;13.88;40.11;97736.25;6893438;28;20220;-83
2024/03/08 17:28:16;;;;;;;14.97;10.53;;;;;;;13.64;40.10;97741.06;6892029;28;20730;-82
2024/03/08 17:31:37;;;;;;;13.77;10.63;;;;;;;13.70;40.14;97750.91;6891566;28;20251;-82
2024/03/08 17:35:00;;;;;;;12.87;10.33;;;;;;;13.97;39.61;97749.09;6893130;28;20213;-85
2024/03/08 17:38:24;;;;;;;13.50;10.37;;;;;;;13.97;38.97;97742.84;6893113;28;20289;-81
2024/03/08 17:41:49;;;;;;;13.90;10.60;;;;;;;13.78;39.64;97738.81;6892654;28;20247;-83
2024/03/08 17:45:13;;;;;;;13.13;10.50;;;;;;;13.59;39.54;97738.31;6884698;28;20303;-82
2024/03/08 17:48:34;;;;;;;13.93;10.40;;;;;;;13.43;39.62;97714.78;6892185;28;20232;-83
2024/03/08 17:52:02;;;;;;;14.73;10.40;;;;;;;13.69;39.61;97737.63;6896044;28;20215;-85
2024/03/08 17:55:25;;;;;;;13.20;10.47;;;;;;;14.10;38.94;97746.00;6893144;28;20198;-83
2024/03/08 17:58:47;;;;;;;14.97;11.33;;;;;;;14.12;38.51;97748.47;6890809;28;20320;-83
2024/03/08 18:02:08;;;;;;;13.87;10.60;;;;;;;13.09;40.38;97761.09;6892667;28;20212;-83
2024/03/08 18:05:32;;;;;;;13.70;10.77;;;;;;;13.34;40.12;97743.34;6891914;28;20245;-83
2024/03/08 18:08:54;;;;;;;15.93;10.67;;;;;;;13.51;39.88;97743.34;6863828;28;20229;-82
2024/03/08 18:12:17;;;;;;;13.57;10.47;;;;;;;13.75;39.68;97736.63;6881474;28;20204;-83
2024/03/08 18:15:39;;;;;;;15.13;11.20;;;;;;;13.14;39.90;97740.34;6892764;28;20216;-83
2024/03/08 18:19:07;;;;;;;13.90;10.43;;;;;;;13.37;40.18;97740.16;6879816;28;20237;-83
2024/03/08 18:22:28;;;;;;;14.23;11.53;;;;;;;13.51;39.83;97738.72;6864419;28;20544;-83
2024/03/08 18:25:51;;;;;;;16.23;12.33;;;;;;;13.74;39.38;97721.47;6863390;28;20299;-83
2024/03/08 18:29:16;;;;;;;20.83;11.97;;;;;;;13.36;39.62;97732.28;6880782;28;20225;-83
2024/03/08 18:32:38;;;;;;;18.77;13.57;;;;;;;12.96;40.21;97710.84;6864177;28;20300;-86
2024/03/08 18:35:59;;;;;;;16.83;11.67;;;;;;;13.19;39.86;97697.13;6882743;28;20208;-86
2024/03/08 18:39:26;;;;;;;15.57;10.90;;;;;;;13.17;40.04;97693.03;6888557;28;20233;-86
2024/03/08 18:42:48;;;;;;;15.40;10.40;;;;;;;13.57;38.73;97699.81;6888553;28;20568;-85
2024/03/08 18:46:12;;;;;;;13.83;10.80;;;;;;;12.91;39.76;97696.34;6889298;28;20344;-86
2024/03/08 18:49:33;;;;;;;12.07;10.10;;;;;;;13.01;39.98;97700.09;6883794;28;20315;-86
2024/03/08 18:52:57;;;;;;;12.73;10.03;;;;;;;13.01;39.90;97688.44;6889903;28;20216;-85
2024/03/08 18:56:19;;;;;;;13.73;10.30;;;;;;;13.00;39.86;97697.63;6890099;28;20258;-86
2024/03/08 18:59:41;;;;;;;15.63;11.10;;;;;;;12.85;39.90;97676.53;6889077;28;20344;-84
2024/03/08 19:03:08;;;;;;;14.33;10.60;;;;;;;13.09;39.66;97705.09;6889326;28;20308;-85
2024/03/08 19:06:33;;;;;;;13.77;10.80;;;;;;;13.04;39.61;97718.53;6880479;28;20269;-84
2024/03/08 19:09:57;;;;;;;17.30;11.13;;;;;;;12.77;39.70;97709.41;6862253;28;20236;-85
2024/03/08 19:13:18;;;;;;;18.70;12.07;;;;;;;13.00;39.34;97692.22;6865298;28;20304;-85
2024/03/08 19:16:44;;;;;;;11.90;9.70;;;;;;;12.93;39.12;97702.38;6882468;28;20235;-88
2024/03/08 19:21:03;;;;;;;12.43;9.07;;;;;;;12.82;39.39;97697.84;6888828;28;20702;-86
2024/03/08 19:24:26;;;;;;;13.47;8.97;;;;;;;12.94;39.20;97706.69;6869601;28;20251;-84
2024/03/08 19:27:50;;;;;;;13.97;10.10;;;;;;;12.96;39.30;97682.94;6863759;28;20260;-83
2024/03/08 19:31:14;;;;;;;20.87;15.23;;;;;;;12.99;39.24;97707.63;6883988;28;20732;-84
2024/03/08 19:34:35;;;;;;;16.57;13.10;;;;;;;12.97;39.70;97719.75;6888373;28;20204;-84
2024/03/08 19:37:58;;;;;;;15.50;11.90;;;;;;;12.52;38.91;97629.75;6887089;28;20324;-84
2024/03/08 19:41:21;;;;;;;12.43;9.63;;;;;;;12.63;38.74;97709.97;6887725;28;20223;-84
2024/03/08 19:44:47;;;;;;;12.37;8.77;;;;;;;12.55;38.85;97718.47;6866645;28;20231;-84
2024/03/08 19:48:15;;;;;;;10.60;8.97;;;;;;;12.48;38.73;97709.69;6861358;28;20229;-87
2024/03/08 19:51:37;;;;;;;11.67;8.47;;;;;;;12.51;38.52;97725.44;6859648;28;20235;-86
2024/03/08 19:55:01;;;;;;;10.63;8.53;;;;;;;12.36;38.52;97717.88;6861252;28;20786;-87
2024/03/08 19:58:24;;;;;;;12.70;8.47;;;;;;;12.45;38.68;97718.31;6884716;28;20251;-86
2024/03/08 20:01:46;;;;;;;10.73;8.93;;;;;;;11.95;38.96;97722.75;6887523;28;20747;-87
2024/03/08 20:05:12;;;;;;;10.57;7.87;;;;;;;12.17;39.40;97707.50;6879324;28;20245;-87
2024/03/08 20:08:35;;;;;;;13.03;10.07;;;;;;;11.62;39.93;97637.03;6882409;28;20328;-86
2024/03/08 20:12:00;;;;;;;10.87;8.47;;;;;;;11.84;40.48;97716.31;6892659;28;20219;-87
2024/03/08 20:15:26;;;;;;;11.77;9.13;;;;;;;12.02;39.99;97726.94;6897313;28;20208;-86
2024/03/08 20:18:47;;;;;;;15.20;11.37;;;;;;;11.98;41.21;97727.69;6884737;28;20232;-86
2024/03/08 20:22:09;;;;;;;12.47;9.87;;;;;;;11.97;41.30;97728.72;6893923;28;20664;-86
2024/03/08 20:25:48;;;;;;;16.80;11.87;;;;;;;11.12;42.07;97635.13;6883105;28;20325;-85
2024/03/08 20:29:11;;;;;;;11.50;8.80;;;;;;;11.42;41.76;97712.16;6826649;29;20236;-85
2024/03/08 20:32:34;;;;;;;12.37;10.33;;;;;;;10.94;42.02;97619.06;6843579;28;20303;-88
2024/03/08 20:35:55;;;;;;;12.67;9.97;;;;;;;11.48;41.81;97686.09;6866043;28;20292;-88
2024/03/08 20:39:21;;;;;;;15.37;10.70;;;;;;;11.27;42.06;97660.53;6819166;29;20233;-87
2024/03/08 20:42:43;;;;;;;15.33;11.10;;;;;;;10.02;45.71;97686.25;6829433;28;20252;-87
2024/03/08 20:46:05;;;;;;;12.27;10.03;;;;;;;10.51;44.57;97640.19;6841184;28;20212;-87
2024/03/08 20:49:37;;;;;;;11.27;9.47;;;;;;;11.15;43.54;97677.81;6836411;28;20221;-85
2024/03/08 20:52:59;;;;;;;13.63;9.60;;;;;;;10.06;46.07;97687.50;6823843;29;20202;-86
2024/03/08 20:56:24;;;;;;;10.73;9.00;;;;;;;10.22;46.31;97689.53;6829464;29;20202;-86
2024/03/08 20:59:46;;;;;;;12.70;10.07;;;;;;;10.23;45.92;97683.94;6834550;29;20354;-88
2024/03/08 21:03:16;;;;;;;29.80;24.50;;;;;;;9.86;46.39;97657.31;6816174;28;20237;-88
2024/03/08 21:06:40;;;;;;;14.33;11.50;;;;;;;10.17;46.52;97681.31;6860742;28;20726;-88
2024/03/08 21:13:48;;;;;;;14.10;10.70;;;;;;;10.00;46.53;97678.44;6876126;28;20366;-86
2024/03/08 21:17:09;;;;;;;14.63;11.07;;;;;;;9.02;48.90;97696.78;6876459;28;20269;-86
2024/03/08 21:20:31;;;;;;;12.33;10.37;;;;;;;9.46;48.90;97704.59;6872645;28;20732;-87
2024/03/08 21:23:54;;;;;;;14.77;11.20;;;;;;;9.42;48.76;97679.19;6872617;28;20213;-87
2024/03/08 21:27:16;;;;;;;14.77;10.10;;;;;;;9.48;47.71;97632.56;6871166;28;20217;-86
2024/03/08 21:30:38;;;;;;;13.47;10.40;;;;;;;9.40;47.88;97625.59;6878236;28;20240;-86
2024/03/08 21:34:04;;;;;;;14.30;10.77;;;;;;;9.69;47.77;97672.44;6899259;28;20609;-87
2024/03/08 21:37:26;;;;;;;12.10;9.37;;;;;;;9.10;47.79;97646.25;6898868;28;20240;-87
2024/03/08 21:40:49;;;;;;;14.50;10.90;;;;;;;9.17;48.47;97698.06;6898670;28;20213;-86
2024/03/08 21:44:10;;;;;;;15.43;12.90;;;;;;;8.80;49.79;97697.44;6898212;28;20219;-86
2024/03/08 21:47:38;;;;;;;14.73;11.13;;;;;;;8.40;50.30;97623.59;6897536;28;20246;-87
2024/03/08 21:51:00;;;;;;;16.43;12.17;;;;;;;8.67;50.56;97692.19;6895877;28;20261;-86
2024/03/08 21:54:24;;;;;;;16.77;12.20;;;;;;;8.13;50.57;97596.13;6895845;28;20226;-86
2024/03/08 21:57:47;;;;;;;21.37;13.30;;;;;;;8.82;51.01;97698.84;6886839;28;20242;-86
2024/03/08 22:01:09;;;;;;;22.30;14.40;;;;;;;9.41;49.52;97705.28;6869245;28;20280;-86
2024/03/08 22:04:40;;;;;;;20.93;13.13;;;;;;;8.99;49.01;97652.34;6871704;28;20220;-87
2024/03/08 22:08:08;;;;;;;16.40;12.73;;;;;;;8.07;50.50;97626.53;6872161;28;20231;-86
2024/03/08 22:11:39;;;;;;;21.93;13.17;;;;;;;8.94;50.44;97707.84;6871786;28;20206;-86
2024/03/08 22:15:02;;;;;;;20.17;12.50;;;;;;;8.65;49.80;97651.25;6871782;28;20233;-86
2024/03/08 22:18:24;;;;;;;18.00;12.13;;;;;;;8.76;49.79;97696.22;6871023;28;20272;-86
2024/03/08 22:21:46;;;;;;;19.83;12.63;;;;;;;8.61;49.49;97653.56;6870792;28;20629;-86
2024/03/08 22:25:10;;;;;;;16.37;12.63;;;;;;;8.71;50.33;97720.28;6876236;28;20558;-87
2024/03/08 22:28:35;;;;;;;17.47;12.13;;;;;;;7.49;52.30;97608.13;6902125;28;20573;-86
2024/03/08 22:31:59;;;;;;;18.60;12.87;;;;;;;8.14;51.18;97613.88;6902426;28;20220;-87
2024/03/08 22:35:23;;;;;;;20.07;13.03;;;;;;;8.67;51.13;97717.16;6902765;28;20572;-87
2024/03/08 22:38:44;;;;;;;20.03;13.27;;;;;;;8.39;50.78;97654.19;6901734;28;20327;-87
2024/03/08 22:42:06;;;;;;;18.27;13.43;;;;;;;7.72;52.78;97659.38;6900973;28;20229;-87
2024/03/08 22:45:34;;;;;;;19.73;12.67;;;;;;;7.98;52.44;97635.91;6899319;28;20298;-86
2024/03/08 22:48:58;;;;;;;19.67;13.03;;;;;;;8.73;51.66;97697.47;6899685;28;20235;-87
2024/03/08 22:52:19;;;;;;;16.60;12.10;;;;;;;8.78;50.51;97686.91;6902374;28;20210;-87
2024/03/08 22:55:41;;;;;;;18.90;12.77;;;;;;;8.07;51.31;97650.69;6899803;28;20209;-87
2024/03/08 22:59:05;;;;;;;22.87;14.63;;;;;;;8.07;52.49;97671.34;6895531;28;20356;-86
2024/03/08 23:02:26;;;;;;;16.53;11.33;;;;;;;8.15;52.22;97626.28;6896946;28;20299;-87
2024/03/08 23:05:50;;;;;;;19.90;11.83;;;;;;;8.66;51.58;97669.06;6897809;28;20201;-87
2024/03/08 23:09:13;;;;;;;15.23;11.30;;;;;;;8.68;52.34;97672.31;6901867;28;20581;-87
2024/03/08 23:12:40;;;;;;;13.37;10.33;;;;;;;9.02;50.17;97583.88;6898329;28;20356;-86
2024/03/08 23:16:02;;;;;;;14.17;10.67;;;;;;;9.58;48.96;97651.69;6901486;28;20202;-87
2024/03/08 23:19:29;;;;;;;12.30;9.83;;;;;;;9.16;49.53;97648.03;6903666;28;20231;-87
2024/03/08 23:22:52;;;;;;;14.30;10.00;;;;;;;8.86;49.98;97650.88;6883605;28;20231;-87
2024/03/08 23:26:15;;;;;;;16.10;10.80;;;;;;;8.31;51.77;97615.00;6875675;28;20212;-87
2024/03/08 23:29:37;;;;;;;14.13;10.33;;;;;;;9.09;49.90;97616.91;6874718;28;20239;-87
2024/03/08 23:33:09;;;;;;;14.23;10.03;;;;;;;9.62;49.87;97652.88;6878200;28;20207;-87
2024/03/08 23:36:36;;;;;;;13.77;10.07;;;;;;;8.83;49.50;97578.75;6876046;28;20275;-86
2024/03/08 23:39:59;;;;;;;13.17;10.60;;;;;;;8.93;51.46;97673.13;6876112;28;20233;-86
2024/03/08 23:43:25;;;;;;;18.97;11.43;;;;;;;8.83;51.64;97679.00;6876094;28;20211;-86
2024/03/08 23:46:47;;;;;;;17.27;10.87;;;;;;;8.99;50.97;97694.56;6875871;28;20220;-87
2024/03/08 23:50:10;;;;;;;16.03;12.10;;;;;;;8.58;52.66;97715.81;6890385;28;20312;-87
2024/03/08 23:53:31;;;;;;;16.50;11.97;;;;;;;7.66;53.61;97644.16;6902114;28;20684;-86
2024/03/08 23:56:54;;;;;;;14.90;11.20;;;;;;;7.42;55.25;97671.72;6902620;28;20211;-86
